Time;durP1;ratioP1;P1;durP2;ratioP2;P2;SDS_P1;SDS_P2;PMS_P1;PMS_P2;Temp;Humidity;BMP_temperature;BMP_pressure;BME280_temperature;BME280_humidity;BME280_pressure;Samples;Min_cycle;Max_cycle;Signal;HPM_P1;HPM_P2
2022/06/14 00:00:59;;;;;;;4.57;2.53;;;19.90;99.90;;;;;;5030621;28;20029;-76
2022/06/14 00:03:39;;;;;;;5.57;3.08;;;19.90;99.90;;;;;;5028392;28;20037;-76
2022/06/14 00:06:10;;;;;;;4.80;2.72;;;19.80;99.90;;;;;;5022961;28;20037;-77
2022/06/14 00:08:36;;;;;;;5.07;3.03;;;19.80;99.90;;;;;;5026593;28;20038;-76
2022/06/14 00:11:13;;;;;;;4.90;3.15;;;19.80;99.90;;;;;;5031256;28;20088;-77
2022/06/14 00:13:39;;;;;;;5.18;3.08;;;19.80;99.90;;;;;;5028325;28;20503;-76
2022/06/14 00:16:05;;;;;;;4.93;2.60;;;19.80;99.90;;;;;;5028953;28;20032;-77
2022/06/14 00:18:31;;;;;;;3.60;2.40;;;19.80;99.90;;;;;;5022374;28;20030;-76
2022/06/14 00:20:57;;;;;;;7.90;2.80;;;19.80;99.90;;;;;;5030815;28;20040;-77
2022/06/14 00:23:23;;;;;;;6.82;2.65;;;19.80;99.90;;;;;;5025392;28;20033;-76
2022/06/14 00:25:53;;;;;;;4.80;2.75;;;19.80;99.90;;;;;;5024996;28;20037;-76
2022/06/14 00:28:20;;;;;;;3.72;2.58;;;19.70;99.90;;;;;;5029570;28;20530;-76
2022/06/14 00:30:49;;;;;;;4.97;2.35;;;19.80;99.90;;;;;;5031670;28;20129;-76
2022/06/14 00:33:15;;;;;;;5.55;2.60;;;19.80;99.90;;;;;;5020199;28;20028;-76
2022/06/14 00:35:41;;;;;;;4.75;2.63;;;19.70;99.90;;;;;;5026370;28;20056;-77
2022/06/14 00:38:08;;;;;;;4.60;3.20;;;19.70;99.90;;;;;;5033508;28;20034;-76
2022/06/14 00:40:36;;;;;;;4.78;2.70;;;19.60;99.90;;;;;;5029774;28;20025;-76
2022/06/14 00:43:09;;;;;;;5.35;2.50;;;19.60;99.90;;;;;;5033837;28;20056;-76
2022/06/14 00:45:35;;;;;;;4.45;2.55;;;19.60;99.90;;;;;;5030993;28;20059;-76
2022/06/14 00:48:04;;;;;;;4.78;2.58;;;19.80;99.90;;;;;;5032136;28;20087;-76
2022/06/14 00:50:39;;;;;;;7.05;3.15;;;19.80;99.90;;;;;;5030227;28;20029;-76
2022/06/14 00:53:11;;;;;;;8.32;2.92;;;19.70;99.90;;;;;;5032493;28;20100;-76
2022/06/14 00:55:51;;;;;;;3.95;2.50;;;19.60;99.90;;;;;;5029591;28;20034;-76
2022/06/14 00:58:25;;;;;;;5.20;2.92;;;19.60;99.90;;;;;;5032061;28;20120;-77
2022/06/14 01:01:07;;;;;;;5.43;2.67;;;19.60;99.90;;;;;;5031255;28;20104;-76
2022/06/14 01:03:50;;;;;;;4.10;2.80;;;19.60;99.90;;;;;;5033134;28;20041;-77
2022/06/14 01:06:24;;;;;;;5.93;2.77;;;19.40;99.90;;;;;;5024946;28;20034;-76
2022/06/14 01:08:52;;;;;;;4.55;2.92;;;19.20;99.90;;;;;;5026440;28;20327;-77
2022/06/14 01:11:35;;;;;;;3.72;2.40;;;19.20;99.90;;;;;;5023615;28;20045;-77
2022/06/14 01:14:05;;;;;;;4.68;2.60;;;19.00;99.90;;;;;;5028820;28;20037;-76
2022/06/14 01:16:32;;;;;;;5.60;2.97;;;19.10;99.90;;;;;;5028217;28;20032;-77
2022/06/14 01:18:58;;;;;;;4.40;2.67;;;19.10;99.90;;;;;;5032018;28;20033;-76
2022/06/14 01:21:25;;;;;;;4.60;2.70;;;19.00;99.90;;;;;;5032872;28;20365;-76
2022/06/14 01:23:51;;;;;;;3.90;2.65;;;19.10;99.90;;;;;;5032552;28;20030;-77
2022/06/14 01:26:21;;;;;;;6.63;3.10;;;19.00;99.90;;;;;;5027201;28;20490;-76
2022/06/14 01:28:52;;;;;;;4.00;2.38;;;19.10;99.90;;;;;;5032685;28;20112;-77
2022/06/14 01:31:20;;;;;;;4.85;2.67;;;19.20;99.90;;;;;;5019473;28;20078;-78
2022/06/14 01:33:50;;;;;;;4.75;2.58;;;19.10;99.90;;;;;;5029698;28;20395;-77
2022/06/14 01:36:21;;;;;;;5.68;2.42;;;19.20;99.90;;;;;;5023915;28;20041;-76
2022/06/14 01:38:49;;;;;;;4.85;3.13;;;19.20;99.90;;;;;;5032711;28;20045;-76
2022/06/14 01:41:23;;;;;;;5.03;3.00;;;19.10;99.90;;;;;;5024542;28;20033;-76
2022/06/14 01:44:08;;;;;;;5.50;2.50;;;19.10;99.90;;;;;;5031542;28;20196;-77
2022/06/14 01:47:02;;;;;;;4.00;2.50;;;19.20;99.90;;;;;;5022590;28;20045;-76
2022/06/14 01:52:52;;;;;;;3.80;2.35;;;19.00;99.90;;;;;;5029534;28;20087;-77
2022/06/14 01:55:25;;;;;;;5.13;2.58;;;19.10;99.90;;;;;;5007629;28;20087;-76
2022/06/14 01:57:50;;;;;;;4.72;2.30;;;18.90;99.90;;;;;;5032201;28;20087;-77
2022/06/14 02:00:25;;;;;;;6.38;2.60;;;19.20;99.90;;;;;;5024902;28;20034;-76
2022/06/14 02:06:00;;;;;;;6.32;2.63;;;18.80;99.90;;;;;;5004232;28;20046;-77
2022/06/14 02:08:31;;;;;;;4.35;2.67;;;18.70;99.90;;;;;;5029171;28;20064;-76
2022/06/14 02:11:18;;;;;;;7.10;2.80;;;18.70;99.90;;;;;;5032006;28;20400;-76
2022/06/14 02:13:47;;;;;;;4.63;2.78;;;18.80;99.90;;;;;;5029047;28;20472;-77
2022/06/14 02:16:24;;;;;;;5.82;3.05;;;18.80;99.90;;;;;;5028891;28;20083;-77
2022/06/14 02:19:12;;;;;;;4.90;2.58;;;18.80;99.90;;;;;;5024625;28;20495;-76
2022/06/14 02:21:54;;;;;;;4.00;2.50;;;19.00;99.90;;;;;;5023854;28;20499;-77
2022/06/14 02:24:31;;;;;;;4.20;2.53;;;19.00;99.90;;;;;;5026290;28;20029;-76
2022/06/14 02:27:09;;;;;;;3.63;2.40;;;19.30;99.90;;;;;;5031729;28;20033;-76
2022/06/14 02:29:43;;;;;;;5.88;2.65;;;19.30;99.90;;;;;;5029435;28;20056;-77
2022/06/14 02:32:15;;;;;;;4.72;2.63;;;19.20;99.90;;;;;;5027911;28;20094;-76
2022/06/14 02:34:55;;;;;;;4.13;2.40;;;19.20;99.90;;;;;;5029022;28;20136;-77
2022/06/14 02:37:31;;;;;;;4.78;2.45;;;19.10;99.90;;;;;;5028666;28;20029;-76
2022/06/14 02:40:04;;;;;;;3.25;2.28;;;18.90;99.90;;;;;;5019422;28;20025;-77
2022/06/14 02:42:44;;;;;;;4.70;2.22;;;19.00;99.90;;;;;;5031168;28;20480;-76
2022/06/14 02:45:26;;;;;;;3.30;2.22;;;19.10;99.90;;;;;;5030090;28;20025;-76
2022/06/14 02:48:01;;;;;;;4.43;2.17;;;19.20;99.70;;;;;;5030062;28;20034;-77
2022/06/14 02:50:33;;;;;;;5.10;2.45;;;19.00;99.90;;;;;;5022249;28;20036;-76
2022/06/14 02:53:05;;;;;;;3.80;2.22;;;19.10;99.70;;;;;;5030753;28;20120;-76
2022/06/14 02:55:45;;;;;;;3.85;2.22;;;19.10;99.90;;;;;;5024648;28;20392;-76
2022/06/14 02:58:25;;;;;;;6.35;1.95;;;18.90;99.90;;;;;;5020008;28;20029;-77
2022/06/14 03:01:17;;;;;;;4.45;2.50;;;18.80;99.90;;;;;;5027955;28;20025;-75
2022/06/14 03:03:48;;;;;;;3.88;2.67;;;18.70;99.90;;;;;;5016340;28;20065;-76
2022/06/14 03:06:41;;;;;;;4.35;2.17;;;18.50;99.90;;;;;;5020187;28;20460;-77
2022/06/14 03:09:16;;;;;;;3.67;1.98;;;18.00;99.90;;;;;;5023184;28;20029;-76
2022/06/14 03:12:05;;;;;;;6.25;2.72;;;17.80;99.90;;;;;;5024286;28;20068;-76
2022/06/14 03:14:49;;;;;;;3.95;2.25;;;17.90;99.90;;;;;;5023640;28;20542;-76
2022/06/14 03:17:23;;;;;;;6.68;2.40;;;17.70;99.90;;;;;;5027053;28;20049;-76
2022/06/14 03:20:00;;;;;;;3.95;1.95;;;17.70;99.90;;;;;;5021914;28;20032;-76
2022/06/14 03:22:54;;;;;;;4.97;2.05;;;17.80;99.90;;;;;;5024713;28;20037;-76
2022/06/14 03:25:46;;;;;;;3.58;2.10;;;17.80;99.90;;;;;;5004617;28;20107;-76
2022/06/14 03:28:36;;;;;;;4.68;1.80;;;17.90;99.90;;;;;;5024618;28;20072;-75
2022/06/14 03:31:22;;;;;;;3.25;1.92;;;17.90;99.90;;;;;;5022961;28;20041;-76
2022/06/14 03:34:19;;;;;;;4.03;2.00;;;17.80;99.90;;;;;;5026354;28;20379;-76
2022/06/14 03:36:44;;;;;;;3.55;2.17;;;18.00;99.90;;;;;;5017843;28;20045;-76
2022/06/14 03:39:13;;;;;;;4.57;2.03;;;17.90;99.90;;;;;;5030191;28;20034;-76
2022/06/14 03:41:43;;;;;;;4.32;2.47;;;17.90;99.90;;;;;;5022443;28;20037;-76
2022/06/14 03:44:11;;;;;;;4.80;1.90;;;17.90;99.90;;;;;;5029630;28;20609;-76
2022/06/14 03:46:41;;;;;;;5.13;3.03;;;17.90;99.90;;;;;;5023934;28;20033;-76
2022/06/14 03:49:18;;;;;;;4.65;2.15;;;17.90;99.90;;;;;;5028095;28;20026;-76
2022/06/14 03:51:43;;;;;;;3.78;2.13;;;18.00;99.90;;;;;;5023941;28;20042;-76
2022/06/14 03:54:46;;;;;;;5.22;2.40;;;18.10;99.90;;;;;;5027035;28;20516;-76
2022/06/14 03:57:29;;;;;;;3.60;1.98;;;18.00;99.90;;;;;;5025692;28;20435;-76
2022/06/14 04:00:10;;;;;;;3.90;2.45;;;18.00;99.90;;;;;;5021850;28;20088;-77
2022/06/14 04:02:55;;;;;;;5.82;1.80;;;18.10;99.30;;;;;;5026037;28;20122;-76
2022/06/14 04:05:30;;;;;;;5.07;2.13;;;18.30;97.40;;;;;;5013565;28;20526;-76
2022/06/14 04:08:09;;;;;;;4.20;1.50;;;18.40;97.70;;;;;;5025884;28;20025;-77
2022/06/14 04:10:40;;;;;;;3.60;2.20;;;18.50;98.40;;;;;;5023412;28;20127;-76
2022/06/14 04:13:38;;;;;;;4.78;1.88;;;18.40;98.20;;;;;;5026362;28;20060;-79
2022/06/14 04:16:31;;;;;;;3.17;1.42;;;18.40;98.30;;;;;;5001475;28;20037;-77
2022/06/14 04:19:19;;;;;;;3.15;1.95;;;18.70;96.70;;;;;;5022432;28;20037;-77
2022/06/14 04:22:15;;;;;;;7.53;2.58;;;18.50;99.40;;;;;;5012164;28;20165;-77
2022/06/14 04:25:07;;;;;;;4.15;2.30;;;18.30;99.80;;;;;;5024567;28;20037;-75
2022/06/14 04:28:11;;;;;;;4.80;2.20;;;18.30;99.90;;;;;;5020525;28;20049;-76
2022/06/14 04:30:44;;;;;;;5.03;2.20;;;18.50;99.90;;;;;;5024794;28;20045;-76
2022/06/14 04:33:15;;;;;;;6.37;2.17;;;18.50;99.90;;;;;;5049182;28;20382;-76
2022/06/14 04:35:54;;;;;;;4.03;2.28;;;18.70;99.90;;;;;;5021164;28;20518;-77
2022/06/14 04:38:35;;;;;;;4.22;2.13;;;18.60;99.90;;;;;;5018285;28;20096;-76
2022/06/14 04:41:31;;;;;;;5.30;2.20;;;18.80;99.90;;;;;;5023243;28;20030;-76
2022/06/14 04:44:19;;;;;;;5.85;2.00;;;18.80;99.90;;;;;;5021917;28;20052;-75
2022/06/14 04:46:53;;;;;;;4.25;2.03;;;19.00;97.70;;;;;;5017723;28;20529;-76
2022/06/14 04:49:44;;;;;;;3.00;1.73;;;19.10;97.00;;;;;;5018241;28;20205;-78
2022/06/14 04:52:32;;;;;;;4.20;1.77;;;19.20;96.30;;;;;;5021977;28;20049;-77
2022/06/14 04:55:25;;;;;;;3.47;1.63;;;19.10;97.20;;;;;;5023428;28;20026;-77
2022/06/14 04:58:12;;;;;;;4.18;2.10;;;19.10;98.00;;;;;;5021768;28;20041;-76
2022/06/14 05:00:58;;;;;;;4.82;2.10;;;19.20;99.90;;;;;;5020738;28;20132;-76
2022/06/14 05:03:32;;;;;;;5.78;2.20;;;19.00;99.40;;;;;;5022546;28;20100;-78
2022/06/14 05:06:04;;;;;;;5.30;2.38;;;18.80;99.90;;;;;;5025659;28;20120;-75
2022/06/14 05:08:33;;;;;;;2.83;1.70;;;18.60;99.90;;;;;;5022522;28;20026;-76
2022/06/14 05:11:24;;;;;;;8.00;2.33;;;18.80;98.10;;;;;;5023861;28;20033;-77
2022/06/14 05:14:08;;;;;;;4.20;1.55;;;18.90;97.40;;;;;;5022714;28;20029;-76
2022/06/14 05:16:45;;;;;;;3.45;1.70;;;19.10;98.70;;;;;;5024700;28;20112;-76
2022/06/14 05:19:26;;;;;;;4.20;2.38;;;19.10;99.00;;;;;;5021375;28;20264;-75
2022/06/14 05:22:00;;;;;;;4.10;1.98;;;19.20;99.10;;;;;;5023919;28;20034;-79
2022/06/14 05:24:26;;;;;;;;;;;19.10;99.90;;;;;;5029141;28;20064;-78
2022/06/14 05:27:14;;;;;;;4.38;2.17;;;19.00;96.70;;;;;;5023171;28;19905;-77
2022/06/14 05:30:00;;;;;;;4.57;1.90;;;19.10;97.90;;;;;;5022276;28;20034;-77
2022/06/14 05:33:03;;;;;;;4.65;1.88;;;19.10;97.30;;;;;;5022076;28;20472;-76
2022/06/14 05:35:45;;;;;;;4.97;1.73;;;19.20;97.50;;;;;;5022859;28;20112;-77
2022/06/14 05:38:24;;;;;;;3.38;1.77;;;19.40;96.10;;;;;;5024619;28;20032;-77
2022/06/14 05:41:11;;;;;;;8.02;2.17;;;19.50;96.90;;;;;;5020078;28;20079;-77
2022/06/14 05:43:57;;;;;;;2.65;1.45;;;19.60;97.50;;;;;;5028988;28;20033;-76
2022/06/14 05:46:41;;;;;;;3.25;1.52;;;19.60;96.00;;;;;;5018734;28;20049;-77
2022/06/14 05:49:21;;;;;;;3.65;1.35;;;19.70;96.10;;;;;;5022254;28;20100;-77
2022/06/14 05:52:10;;;;;;;4.40;1.83;;;19.60;95.80;;;;;;5015242;28;20124;-75
2022/06/14 05:55:02;;;;;;;3.55;2.03;;;19.60;94.70;;;;;;5023583;28;20025;-76
2022/06/14 05:57:35;;;;;;;3.65;1.20;;;19.40;94.60;;;;;;5024208;28;20037;-76
2022/06/14 06:00:10;;;;;;;3.20;1.60;;;19.40;94.20;;;;;;5024667;28;20792;-76
2022/06/14 06:02:54;;;;;;;3.95;1.60;;;19.40;94.50;;;;;;5022895;28;20087;-75
2022/06/14 06:05:43;;;;;;;5.40;1.70;;;19.50;94.50;;;;;;5020454;28;20032;-76
2022/06/14 06:08:19;;;;;;;4.88;1.88;;;19.50;94.70;;;;;;5024481;28;20539;-75
2022/06/14 06:10:50;;;;;;;5.80;1.77;;;19.50;94.60;;;;;;5023485;28;20056;-78
2022/06/14 06:13:22;;;;;;;6.72;2.10;;;19.50;94.90;;;;;;5024367;28;20064;-75
2022/06/14 06:15:56;;;;;;;3.63;1.80;;;19.50;94.70;;;;;;5018498;28;20037;-79
2022/06/14 06:18:40;;;;;;;5.82;1.75;;;19.50;94.80;;;;;;5021423;28;20131;-76
2022/06/14 06:21:11;;;;;;;;;;;19.50;95.00;;;;;;5020848;28;20037;-76
2022/06/14 06:23:47;;;;;;;4.03;1.77;;;19.60;95.80;;;;;;5021653;28;19912;-75
2022/06/14 06:26:16;;;;;;;5.72;1.80;;;19.70;96.50;;;;;;5023690;28;20375;-76
2022/06/14 06:28:54;;;;;;;5.47;1.60;;;19.80;96.50;;;;;;5022177;28;20033;-76
2022/06/14 06:31:28;;;;;;;4.18;1.60;;;19.80;97.70;;;;;;5023897;28;20084;-75
2022/06/14 06:33:56;;;;;;;3.33;1.73;;;19.90;97.20;;;;;;5020888;28;20122;-76
2022/06/14 06:36:49;;;;;;;3.83;1.77;;;19.90;95.40;;;;;;5023065;28;20034;-75
2022/06/14 06:39:42;;;;;;;3.25;1.83;;;19.80;94.60;;;;;;5021455;28;20031;-75
2022/06/14 06:42:16;;;;;;;6.30;1.98;;;19.90;95.40;;;;;;5019340;28;20835;-76
2022/06/14 06:44:47;;;;;;;5.63;2.53;;;20.00;94.70;;;;;;5022519;28;21082;-76
2022/06/14 06:47:30;;;;;;;3.95;1.88;;;20.00;94.40;;;;;;5024354;28;20029;-75
2022/06/14 06:50:15;;;;;;;3.75;2.00;;;20.10;94.60;;;;;;5021439;28;20109;-75
2022/06/14 06:52:52;;;;;;;5.40;2.13;;;20.30;95.00;;;;;;5029333;28;20090;-77
2022/06/14 06:55:48;;;;;;;3.70;2.25;;;20.30;94.20;;;;;;5026814;28;20041;-75
2022/06/14 06:58:22;;;;;;;4.30;1.77;;;20.50;94.20;;;;;;5030554;28;20036;-75
2022/06/14 07:00:51;;;;;;;3.75;2.28;;;20.70;93.50;;;;;;5029735;28;20487;-77
2022/06/14 07:03:27;;;;;;;5.88;1.98;;;20.80;94.00;;;;;;5030560;28;20057;-75
2022/06/14 07:05:57;;;;;;;2.97;1.85;;;20.90;93.60;;;;;;5029656;28;20037;-75
2022/06/14 07:08:38;;;;;;;3.70;1.67;;;21.20;93.60;;;;;;5028514;28;20037;-75
2022/06/14 07:11:06;;;;;;;3.67;1.90;;;21.50;94.20;;;;;;5025470;28;20049;-74
2022/06/14 07:13:56;;;;;;;5.15;1.90;;;21.80;92.30;;;;;;5022040;28;20042;-74
2022/06/14 07:16:29;;;;;;;4.90;1.70;;;22.10;91.80;;;;;;5024594;28;20158;-73
2022/06/14 07:18:59;;;;;;;3.63;2.10;;;22.20;91.40;;;;;;5030136;28;20037;-75
2022/06/14 07:21:31;;;;;;;4.05;2.25;;;22.50;93.00;;;;;;5030037;28;20038;-73
2022/06/14 07:24:11;;;;;;;5.75;2.25;;;22.60;93.10;;;;;;5029489;28;20180;-74
2022/06/14 07:26:37;;;;;;;3.70;1.88;;;22.80;92.00;;;;;;5023250;28;20044;-76
2022/06/14 07:29:27;;;;;;;3.17;1.90;;;22.80;91.90;;;;;;5023447;28;20025;-75
2022/06/14 07:31:59;;;;;;;4.80;2.22;;;23.50;91.50;;;;;;5023676;28;20482;-75
2022/06/14 07:34:26;;;;;;;6.10;1.92;;;24.30;90.50;;;;;;5025406;28;20037;-75
2022/06/14 07:37:13;;;;;;;3.45;1.55;;;25.00;90.10;;;;;;5022885;28;20060;-75
2022/06/14 07:40:14;;;;;;;3.95;1.83;;;25.70;88.30;;;;;;5022671;28;20045;-74
2022/06/14 07:43:06;;;;;;;4.03;1.98;;;26.10;88.30;;;;;;5027572;28;20359;-74
2022/06/14 07:45:37;;;;;;;3.55;1.73;;;26.60;85.60;;;;;;5027180;28;20040;-74
2022/06/14 07:48:06;;;;;;;5.60;2.28;;;26.50;85.90;;;;;;5030424;28;20039;-75
2022/06/14 07:50:43;;;;;;;4.53;1.85;;;26.00;84.20;;;;;;5021906;28;20033;-74
2022/06/14 07:53:13;;;;;;;3.17;1.60;;;26.00;82.80;;;;;;5030245;28;20052;-74
2022/06/14 07:55:47;;;;;;;3.50;2.30;;;25.70;84.00;;;;;;5028520;28;20029;-74
2022/06/14 07:58:18;;;;;;;;;;;25.40;85.20;;;;;;5027925;28;20049;-79
2022/06/14 08:01:10;;;;;;;3.20;1.55;;;25.10;85.40;;;;;;5027899;28;20025;-75
2022/06/14 08:03:47;;;;;;;3.90;1.88;;;25.00;83.60;;;;;;5025843;28;20034;-76
2022/06/14 08:06:18;;;;;;;4.18;1.90;;;25.00;85.30;;;;;;5027573;28;20033;-78
2022/06/14 08:08:46;;;;;;;4.60;2.03;;;25.20;85.00;;;;;;5026857;28;20620;-76
2022/06/14 08:11:21;;;;;;;7.28;2.35;;;25.20;87.00;;;;;;5024976;28;20030;-76
2022/06/14 08:13:53;;;;;;;4.95;2.00;;;25.00;89.30;;;;;;5025616;28;20063;-76
2022/06/14 08:16:21;;;;;;;8.10;2.13;;;24.90;88.60;;;;;;5027253;28;20034;-76
2022/06/14 08:18:56;;;;;;;4.07;2.10;;;25.20;89.40;;;;;;5025858;28;20116;-76
2022/06/14 08:21:35;;;;;;;5.07;2.15;;;25.20;88.40;;;;;;5026364;28;20046;-75
2022/06/14 08:24:10;;;;;;;4.15;1.98;;;25.20;87.40;;;;;;5026056;28;20632;-77
2022/06/14 08:26:46;;;;;;;5.72;1.80;;;24.90;86.30;;;;;;5024636;28;20042;-77
2022/06/14 08:29:27;;;;;;;6.45;2.13;;;25.00;86.60;;;;;;5026943;28;20106;-76
2022/06/14 08:31:56;;;;;;;3.17;1.77;;;25.00;87.10;;;;;;5026280;28;20053;-75
2022/06/14 08:34:45;;;;;;;6.53;1.95;;;24.90;88.10;;;;;;5024906;28;20808;-77
2022/06/14 08:37:34;;;;;;;4.57;2.10;;;25.20;88.40;;;;;;5017680;28;20048;-77
2022/06/14 08:40:29;;;;;;;3.58;2.10;;;25.60;87.40;;;;;;5026792;28;20476;-74
2022/06/14 08:43:01;;;;;;;5.45;2.30;;;25.30;88.10;;;;;;5017475;28;20049;-75
2022/06/14 08:45:48;;;;;;;4.38;2.00;;;25.30;88.00;;;;;;5026378;28;20033;-75
2022/06/14 08:48:19;;;;;;;4.82;2.22;;;25.50;89.90;;;;;;5026709;28;20060;-74
2022/06/14 08:50:51;;;;;;;6.00;2.13;;;25.60;88.80;;;;;;5026233;28;20415;-75
2022/06/14 08:53:37;;;;;;;4.70;2.13;;;25.60;90.30;;;;;;5019844;28;20099;-73
2022/06/14 08:56:34;;;;;;;4.15;2.00;;;25.80;89.90;;;;;;5022656;28;20085;-73
2022/06/14 08:59:19;;;;;;;4.90;1.70;;;25.90;90.40;;;;;;5026091;28;20115;-74
2022/06/14 09:02:24;;;;;;;4.20;1.98;;;25.70;89.50;;;;;;5025806;28;20041;-73
2022/06/14 09:05:05;;;;;;;4.50;2.22;;;25.70;88.50;;;;;;5023696;28;20068;-74
2022/06/14 09:08:18;;;;;;;5.63;2.05;;;26.10;90.50;;;;;;5025278;28;20441;-74
2022/06/14 09:11:09;;;;;;;5.45;1.85;;;26.10;87.90;;;;;;5018693;28;20165;-74
2022/06/14 09:14:03;;;;;;;6.75;1.95;;;25.90;88.00;;;;;;5005623;28;20042;-74
2022/06/14 09:16:53;;;;;;;3.67;1.95;;;26.20;89.70;;;;;;5025789;28;20037;-74
2022/06/14 09:19:24;;;;;;;4.40;2.13;;;26.20;88.40;;;;;;5018057;28;20556;-74
2022/06/14 09:22:06;;;;;;;4.53;2.58;;;26.00;88.40;;;;;;5023654;28;20708;-73
2022/06/14 09:24:50;;;;;;;3.78;2.22;;;26.50;89.80;;;;;;5025742;28;20117;-73
2022/06/14 09:27:22;;;;;;;6.95;2.85;;;26.30;88.60;;;;;;5019731;28;20369;-73
2022/06/14 09:30:20;;;;;;;4.38;2.03;;;26.60;88.60;;;;;;5023336;28;20069;-73
2022/06/14 09:33:10;;;;;;;6.00;2.22;;;26.60;89.60;;;;;;5022340;28;20128;-73
2022/06/14 09:35:53;;;;;;;5.60;2.22;;;26.50;89.00;;;;;;5024444;28;20037;-73
2022/06/14 09:38:22;;;;;;;3.90;2.28;;;26.80;87.70;;;;;;5025064;28;20390;-73
2022/06/14 09:40:53;;;;;;;5.25;2.30;;;26.90;86.50;;;;;;5024971;28;20036;-73
2022/06/14 09:44:01;;;;;;;5.15;3.20;;;27.30;88.70;;;;;;5025164;28;20027;-73
2022/06/14 09:46:46;;;;;;;3.90;2.10;;;27.40;90.20;;;;;;5025533;28;20069;-73
2022/06/14 09:49:21;;;;;;;4.30;2.03;;;27.00;86.60;;;;;;5015203;28;20033;-74
2022/06/14 09:52:08;;;;;;;4.50;2.38;;;27.00;86.20;;;;;;5024054;28;20038;-73
2022/06/14 09:54:55;;;;;;;4.90;2.40;;;27.30;87.70;;;;;;5022505;28;20039;-74
2022/06/14 09:57:58;;;;;;;3.78;1.85;;;28.00;86.70;;;;;;5024245;28;20112;-74
2022/06/14 10:00:29;;;;;;;5.03;1.90;;;28.20;88.70;;;;;;5024786;28;20033;-73
2022/06/14 10:03:26;;;;;;;4.47;2.30;;;27.30;85.90;;;;;;5016685;28;20517;-74
2022/06/14 10:06:10;;;;;;;5.38;2.00;;;27.80;87.40;;;;;;5024882;28;20116;-74
2022/06/14 10:09:13;;;;;;;3.10;2.08;;;27.70;85.40;;;;;;5024962;28;20083;-74
2022/06/14 10:11:50;;;;;;;3.13;1.80;;;28.00;84.60;;;;;;5025105;28;20044;-74
2022/06/14 10:14:19;;;;;;;4.68;2.03;;;28.30;85.90;;;;;;5023103;28;20473;-73
2022/06/14 10:16:59;;;;;;;4.40;2.25;;;28.30;84.40;;;;;;5017836;28;20041;-74
2022/06/14 10:20:06;;;;;;;6.90;2.33;;;28.70;85.40;;;;;;5018449;28;20037;-74
2022/06/14 10:22:50;;;;;;;4.57;1.92;;;28.20;86.80;;;;;;5024812;28;20050;-73
2022/06/14 10:28:11;;;;;;;4.65;1.70;;;28.40;87.00;;;;;;5025085;28;20041;-74
2022/06/14 10:28:41;;;;;;;3.22;2.00;;;28.10;84.60;;;;;;5020600;28;20030;-73
2022/06/14 10:31:30;;;;;;;4.03;1.60;;;28.40;86.70;;;;;;5024640;28;20102;-73
2022/06/14 10:34:14;;;;;;;7.70;2.47;;;28.40;83.90;;;;;;5027489;28;20025;-74
2022/06/14 10:37:09;;;;;;;6.35;2.08;;;29.20;85.20;;;;;;5025496;28;20116;-74
2022/06/14 10:39:35;;;;;;;4.47;1.77;;;29.20;85.40;;;;;;5030322;28;20033;-74
2022/06/14 10:42:06;;;;;;;3.45;1.88;;;29.30;86.10;;;;;;5028498;28;20040;-74
2022/06/14 10:44:44;;;;;;;4.22;1.83;;;29.20;84.50;;;;;;5030395;28;20037;-74
2022/06/14 10:47:41;;;;;;;3.80;1.80;;;28.80;84.30;;;;;;5041417;28;20033;-74
2022/06/14 10:50:29;;;;;;;2.75;1.63;;;28.80;85.30;;;;;;5030453;28;20041;-73
2022/06/14 10:53:19;;;;;;;3.67;2.20;;;28.40;84.40;;;;;;5025325;28;20123;-73
2022/06/14 10:56:27;;;;;;;4.60;2.20;;;28.50;84.90;;;;;;5021231;28;20029;-74
2022/06/14 10:59:03;;;;;;;4.60;2.00;;;28.50;85.00;;;;;;5024975;28;20033;-73
2022/06/14 11:01:39;;;;;;;5.60;2.40;;;29.00;88.20;;;;;;5027304;28;20116;-75
2022/06/14 11:04:26;;;;;;;6.38;2.17;;;29.30;86.60;;;;;;5027214;28;20033;-75
2022/06/14 11:06:54;;;;;;;4.38;1.98;;;29.30;83.40;;;;;;5026343;28;20037;-76
2022/06/14 11:09:47;;;;;;;5.25;2.55;;;29.40;84.80;;;;;;5023179;28;20030;-75
2022/06/14 11:12:16;;;;;;;4.33;2.33;;;29.40;83.40;;;;;;5025590;28;20364;-76
2022/06/14 11:14:55;;;;;;;5.70;2.33;;;29.40;85.00;;;;;;5026893;28;20298;-75
2022/06/14 11:17:51;;;;;;;3.30;2.03;;;29.60;85.20;;;;;;5026911;28;20391;-76
2022/06/14 11:20:58;;;;;;;5.15;2.13;;;29.60;85.60;;;;;;5023046;28;20036;-76
2022/06/14 11:23:55;;;;;;;3.35;1.85;;;29.50;85.10;;;;;;5012227;28;20098;-75
2022/06/14 11:26:31;;;;;;;4.35;2.30;;;29.50;84.30;;;;;;5018353;28;20096;-76
2022/06/14 11:29:24;;;;;;;3.97;2.22;;;29.20;83.00;;;;;;5025483;28;20037;-75
2022/06/14 11:32:09;;;;;;;5.10;2.30;;;29.60;84.10;;;;;;5027190;28;20134;-75
2022/06/14 11:35:07;;;;;;;5.20;2.20;;;29.70;83.90;;;;;;5030730;28;20040;-76
2022/06/14 11:37:41;;;;;;;4.10;2.13;;;29.70;84.00;;;;;;5030633;28;20045;-76
2022/06/14 11:40:15;;;;;;;3.53;2.00;;;29.90;83.90;;;;;;5030683;28;20041;-75
2022/06/14 11:42:49;;;;;;;5.25;1.92;;;29.60;84.20;;;;;;5030857;28;20060;-75
2022/06/14 11:45:41;;;;;;;7.93;2.33;;;30.20;83.10;;;;;;5028697;28;20048;-75
2022/06/14 11:48:17;;;;;;;3.00;2.10;;;29.80;83.20;;;;;;5022656;28;20036;-76
2022/06/14 11:51:13;;;;;;;4.85;2.10;;;30.00;84.70;;;;;;5030452;28;20044;-76
2022/06/14 11:54:12;;;;;;;4.50;2.13;;;30.00;83.20;;;;;;5028295;28;20369;-76
2022/06/14 11:56:50;;;;;;;4.82;2.58;;;30.20;84.50;;;;;;5030773;28;20040;-76
2022/06/14 11:59:15;;;;;;;5.18;2.47;;;30.30;83.90;;;;;;5030724;28;20029;-76
2022/06/14 12:02:02;;;;;;;3.97;2.10;;;30.00;82.00;;;;;;5027374;28;20091;-76
2022/06/14 12:04:53;;;;;;;5.63;2.70;;;30.00;82.90;;;;;;5030127;28;20032;-76
2022/06/14 12:07:40;;;;;;;4.78;2.72;;;30.30;83.70;;;;;;5024880;28;20077;-76
2022/06/14 12:10:44;;;;;;;3.53;1.90;;;30.40;81.40;;;;;;5021375;28;21288;-77
2022/06/14 12:13:31;;;;;;;5.32;2.10;;;30.10;82.30;;;;;;5017635;28;20037;-75
2022/06/14 12:16:15;;;;;;;4.28;2.10;;;30.10;83.10;;;;;;5026095;28;20166;-75
2022/06/14 12:18:59;;;;;;;5.35;2.40;;;30.00;82.80;;;;;;5023679;28;20069;-76
2022/06/14 12:21:33;;;;;;;4.40;2.25;;;30.10;82.00;;;;;;5012287;28;20376;-76
2022/06/14 12:24:05;;;;;;;4.55;2.47;;;30.00;83.10;;;;;;5026025;28;20043;-74
2022/06/14 12:26:42;;;;;;;4.10;2.10;;;30.20;84.10;;;;;;5016482;28;20057;-74
2022/06/14 12:29:22;;;;;;;5.35;2.55;;;30.10;83.00;;;;;;5028205;28;20037;-74
2022/06/14 12:32:24;;;;;;;3.83;2.03;;;30.30;83.50;;;;;;5026931;28;20080;-74
2022/06/14 12:34:55;;;;;;;3.75;2.13;;;30.20;83.30;;;;;;5013816;28;20496;-75
2022/06/14 12:37:38;;;;;;;7.40;2.35;;;30.40;82.50;;;;;;5018958;28;20021;-74
2022/06/14 12:40:44;;;;;;;3.90;2.35;;;30.30;83.90;;;;;;5023134;28;20415;-75
2022/06/14 12:43:29;;;;;;;4.05;2.55;;;30.20;81.80;;;;;;5005299;28;20033;-74
2022/06/14 12:46:05;;;;;;;5.05;2.35;;;30.40;82.60;;;;;;5022549;28;20037;-74
2022/06/14 12:48:40;;;;;;;4.45;2.17;;;30.30;82.50;;;;;;5020905;28;21314;-75
2022/06/14 12:51:15;;;;;;;3.97;2.17;;;30.50;83.40;;;;;;5021033;28;20058;-74
2022/06/14 12:53:53;;;;;;;6.38;2.20;;;30.40;82.30;;;;;;5022923;28;20025;-75
2022/06/14 12:56:22;;;;;;;4.05;2.08;;;30.30;83.00;;;;;;5024046;28;20121;-74
2022/06/14 12:58:50;;;;;;;3.70;2.08;;;30.50;83.40;;;;;;5023498;28;20734;-74
2022/06/14 13:01:28;;;;;;;4.97;2.88;;;30.30;81.50;;;;;;5021730;28;20034;-75
2022/06/14 13:04:13;;;;;;;6.03;2.83;;;30.10;82.70;;;;;;5023068;28;20033;-75
2022/06/14 13:06:50;;;;;;;5.38;3.03;;;30.30;82.00;;;;;;5021619;28;20365;-75
2022/06/14 13:09:23;;;;;;;3.83;2.25;;;30.30;82.50;;;;;;5025062;28;20076;-75
2022/06/14 13:12:19;;;;;;;3.65;2.00;;;30.70;84.00;;;;;;5018492;28;20125;-75
2022/06/14 13:15:17;;;;;;;3.10;1.95;;;30.50;81.10;;;;;;5019841;28;20594;-74
2022/06/14 13:18:20;;;;;;;3.72;2.38;;;30.70;83.30;;;;;;5017232;28;20506;-75
2022/06/14 13:20:51;;;;;;;3.03;1.90;;;30.60;82.20;;;;;;5026209;28;20547;-75
2022/06/14 13:23:39;;;;;;;4.50;2.15;;;30.40;83.20;;;;;;5015024;28;20025;-75
2022/06/14 13:26:26;;;;;;;4.55;2.40;;;30.30;82.10;;;;;;5016977;28;20526;-75
2022/06/14 13:29:04;;;;;;;6.90;2.28;;;30.00;83.10;;;;;;5012581;28;20041;-74
2022/06/14 13:31:54;;;;;;;5.45;2.20;;;30.20;82.50;;;;;;5026856;28;20520;-74
2022/06/14 13:34:48;;;;;;;4.13;2.38;;;30.70;83.30;;;;;;5027097;28;20033;-74
2022/06/14 13:37:45;;;;;;;4.15;2.28;;;30.40;82.30;;;;;;5024008;28;20116;-75
2022/06/14 13:40:20;;;;;;;4.47;2.40;;;30.60;82.10;;;;;;5025090;28;20054;-74
2022/06/14 13:43:12;;;;;;;5.13;2.42;;;30.70;83.20;;;;;;5025413;28;20838;-74
2022/06/14 13:46:05;;;;;;;3.72;2.45;;;30.70;81.80;;;;;;5027309;28;20037;-74
2022/06/14 13:48:50;;;;;;;5.30;2.28;;;30.60;82.30;;;;;;5021563;28;20036;-74
2022/06/14 13:51:44;;;;;;;4.68;2.30;;;30.90;82.50;;;;;;5024774;28;20487;-75
2022/06/14 13:54:27;;;;;;;6.20;2.17;;;30.70;83.30;;;;;;5021299;28;20026;-74
2022/06/14 13:57:22;;;;;;;6.95;2.10;;;30.80;83.20;;;;;;5018229;28;20094;-74
2022/06/14 13:59:51;;;;;;;9.98;2.58;;;30.70;83.20;;;;;;5021228;28;20655;-74
2022/06/14 14:02:23;;;;;;;4.82;2.30;;;30.40;81.70;;;;;;5022848;28;20108;-73